Time;durP1;ratioP1;P1;durP2;ratioP2;P2;SDS_P1;SDS_P2;PMS_P1;PMS_P2;Temp;Humidity;BMP_temperature;BMP_pressure;BME280_temperature;BME280_humidity;BME280_pressure;Samples;Min_cycle;Max_cycle;Signal;HPM_P1;HPM_P2
2022/04/04 00:00:37;;;;;;;;;;;4.40;99.90;;;;;;5093184;28;19945;-66
2022/04/04 00:03:03;;;;;;;;;;;4.40;99.90;;;;;;5092096;28;20480;-67
2022/04/04 00:05:28;;;;;;;;;;;4.40;99.90;;;;;;5093640;28;19916;-67
2022/04/04 00:07:54;;;;;;;;;;;4.30;99.90;;;;;;5093154;28;19916;-66
2022/04/04 00:10:19;;;;;;;;;;;4.40;99.90;;;;;;5093028;28;19916;-67
2022/04/04 00:12:45;;;;;;;;;;;4.30;99.90;;;;;;5092993;28;19963;-66
2022/04/04 00:15:10;;;;;;;;;;;4.40;99.90;;;;;;5093246;28;19923;-66
2022/04/04 00:17:36;;;;;;;;;;;4.30;99.90;;;;;;5093355;28;19916;-66
2022/04/04 00:20:01;;;;;;;;;;;4.20;99.90;;;;;;5091266;28;19920;-66
2022/04/04 00:22:27;;;;;;;;;;;4.20;99.90;;;;;;5093359;28;20007;-66
2022/04/04 00:24:52;;;;;;;;;;;4.20;99.90;;;;;;5091936;28;19919;-66
2022/04/04 00:27:17;;;;;;;;;;;4.10;99.90;;;;;;5091955;28;20359;-67
2022/04/04 00:29:43;;;;;;;;;;;4.10;99.90;;;;;;5074226;28;19919;-66
2022/04/04 00:32:09;;;;;;;;;;;4.10;99.90;;;;;;5092988;28;19916;-66
2022/04/04 00:34:34;;;;;;;;;;;4.10;99.90;;;;;;5092982;28;19920;-67
2022/04/04 00:37:00;;;;;;;;;;;4.10;99.90;;;;;;5091596;28;19915;-66
2022/04/04 00:39:26;;;;;;;;;;;4.10;99.90;;;;;;5092544;28;19916;-66
2022/04/04 00:41:51;;;;;;;;;;;4.10;99.90;;;;;;5092684;28;19916;-66
2022/04/04 00:44:17;;;;;;;;;;;4.10;99.90;;;;;;5092564;28;19923;-66
2022/04/04 00:46:42;;;;;;;;;;;4.10;99.90;;;;;;5092635;28;19927;-66
2022/04/04 00:49:11;;;;;;;;;;;4.10;99.90;;;;;;5092459;28;19919;-66
2022/04/04 00:51:37;;;;;;;;;;;4.00;99.90;;;;;;5092649;28;19916;-67
2022/04/04 00:54:03;;;;;;;;;;;4.00;99.90;;;;;;5092549;28;19924;-67
2022/04/04 00:56:31;;;;;;;;;;;4.10;99.90;;;;;;5092446;28;19920;-66
2022/04/04 00:58:56;;;;;;;;;;;4.00;99.90;;;;;;5092147;28;20376;-67
2022/04/04 01:01:22;;;;;;;;;;;4.10;99.90;;;;;;5092549;28;19920;-66
2022/04/04 01:03:47;;;;;;;;;;;4.10;99.90;;;;;;5091109;28;19919;-68
2022/04/04 01:06:13;;;;;;;;;;;4.10;99.90;;;;;;5091363;28;19969;-66
2022/04/04 01:08:39;;;;;;;;;;;4.20;99.90;;;;;;5092102;28;19963;-67
2022/04/04 01:11:05;;;;;;;;;;;4.00;99.90;;;;;;5092170;28;20386;-65
2022/04/04 01:13:31;;;;;;;;;;;4.10;99.90;;;;;;5092085;28;19920;-66
2022/04/04 01:15:56;;;;;;;;;;;4.20;99.90;;;;;;5092401;28;19923;-66
2022/04/04 01:18:21;;;;;;;;;;;4.20;99.90;;;;;;5090980;28;20264;-66
2022/04/04 01:20:47;;;;;;;;;;;4.20;99.90;;;;;;5091838;28;19976;-67
2022/04/04 01:23:15;;;;;;;;;;;4.20;99.90;;;;;;5092033;28;20387;-66
2022/04/04 01:25:41;;;;;;;;;;;4.20;99.90;;;;;;5091939;28;19941;-66
2022/04/04 01:28:06;;;;;;;;;;;4.30;99.90;;;;;;5091876;28;19932;-66
2022/04/04 01:30:32;;;;;;;;;;;4.20;99.90;;;;;;5090272;28;19920;-66
2022/04/04 01:32:57;;;;;;;;;;;4.20;99.90;;;;;;5091153;28;20081;-67
2022/04/04 01:35:23;;;;;;;;;;;4.20;99.90;;;;;;5092062;28;20324;-66
2022/04/04 01:37:49;;;;;;;;;;;4.20;99.90;;;;;;5091905;28;19923;-66
2022/04/04 01:40:15;;;;;;;;;;;4.20;99.90;;;;;;5091470;28;19966;-66
2022/04/04 01:42:41;;;;;;;;;;;4.30;99.90;;;;;;5091128;28;19916;-66
2022/04/04 01:45:08;;;;;;;;;;;4.30;99.90;;;;;;5091680;28;19915;-66
2022/04/04 01:47:34;;;;;;;;;;;4.30;99.90;;;;;;5091403;28;19920;-66
2022/04/04 01:49:59;;;;;;;;;;;4.30;99.90;;;;;;5091227;28;19916;-66
2022/04/04 01:52:25;;;;;;;;;;;4.40;99.90;;;;;;5091507;28;20393;-66
2022/04/04 01:54:51;;;;;;;;;;;4.30;99.90;;;;;;5091401;28;19920;-66
2022/04/04 01:57:16;;;;;;;;;;;4.30;99.90;;;;;;5091582;28;19923;-66
2022/04/04 01:59:42;;;;;;;;;;;4.30;99.90;;;;;;5091107;28;19965;-67
2022/04/04 02:02:07;;;;;;;;;;;4.40;99.90;;;;;;5091169;28;19970;-67
2022/04/04 02:04:33;;;;;;;;;;;4.20;99.90;;;;;;5090269;28;20372;-66
2022/04/04 02:06:59;;;;;;;;;;;4.30;99.90;;;;;;5091436;28;19923;-66
2022/04/04 02:09:25;;;;;;;;;;;4.30;99.90;;;;;;5091188;28;19923;-68
2022/04/04 02:11:50;;;;;;;;;;;4.30;99.90;;;;;;5091352;28;19932;-68
2022/04/04 02:14:16;;;;;;;;;;;4.30;99.90;;;;;;5091218;28;20015;-66
2022/04/04 02:16:42;;;;;;;;;;;4.30;99.90;;;;;;5091176;28;20364;-66
2022/04/04 02:19:09;;;;;;;;;;;4.30;99.90;;;;;;5091002;28;19927;-66
2022/04/04 02:21:35;;;;;;;;;;;4.40;99.90;;;;;;5091360;28;19916;-66
2022/04/04 02:24:01;;;;;;;;;;;4.40;99.90;;;;;;5090046;28;19924;-68
2022/04/04 02:26:26;;;;;;;;;;;4.40;99.90;;;;;;5091176;28;20291;-66
2022/04/04 02:28:52;;;;;;;;;;;4.40;99.90;;;;;;5090833;28;20283;-66
2022/04/04 02:31:17;;;;;;;;;;;4.50;99.90;;;;;;5090955;28;19920;-66
2022/04/04 02:33:43;;;;;;;;;;;4.40;99.90;;;;;;5091334;28;19930;-68
2022/04/04 02:36:09;;;;;;;;;;;4.40;99.90;;;;;;5089793;28;19923;-67
2022/04/04 02:38:35;;;;;;;;;;;4.50;99.90;;;;;;5090978;28;20010;-66
2022/04/04 02:41:00;;;;;;;;;;;4.40;99.90;;;;;;5091035;28;20023;-66
2022/04/04 02:43:26;;;;;;;;;;;4.40;99.90;;;;;;5091146;28;20355;-66
2022/04/04 02:45:51;;;;;;;;;;;4.40;99.90;;;;;;5090842;28;19920;-67
2022/04/04 02:48:17;;;;;;;;;;;4.40;99.90;;;;;;5091086;28;19922;-68
2022/04/04 02:50:43;;;;;;;;;;;4.50;99.90;;;;;;5089232;28;19973;-66
2022/04/04 02:53:08;;;;;;;;;;;4.50;99.90;;;;;;5092540;28;19924;-66
2022/04/04 02:58:18;;;;;;;;;;;4.50;99.90;;;;;;5094789;28;19924;-67
2022/04/04 03:00:45;;;;;;;;;;;4.50;99.90;;;;;;5094883;28;20386;-66
2022/04/04 03:03:11;;;;;;;;;;;4.50;99.90;;;;;;5095367;28;20054;-66
2022/04/04 03:05:36;;;;;;;;;;;4.50;99.90;;;;;;5098028;28;19916;-66
2022/04/04 03:08:03;;;;;;;;;;;4.50;99.90;;;;;;5098804;28;19927;-66
2022/04/04 03:10:28;;;;;;;;;;;4.50;99.90;;;;;;5096975;28;19971;-66
2022/04/04 03:12:55;;;;;;;;;;;4.60;99.90;;;;;;5096862;28;19997;-67
2022/04/04 03:15:21;;;;;;;;;;;4.60;99.90;;;;;;5096855;28;19923;-66
2022/04/04 03:17:48;;;;;;;;;;;4.60;99.90;;;;;;5094467;28;20311;-66
2022/04/04 03:20:14;;;;;;;;;;;4.60;99.90;;;;;;5093049;28;20439;-68
2022/04/04 03:22:41;;;;;;;;;;;4.70;99.90;;;;;;5094186;28;19915;-66
2022/04/04 03:25:08;;;;;;;;;;;4.60;99.90;;;;;;5093896;28;19919;-67
2022/04/04 03:27:34;;;;;;;;;;;4.60;99.90;;;;;;5093944;28;19922;-66
2022/04/04 03:30:00;;;;;;;;;;;4.60;99.90;;;;;;5093967;28;19998;-67
2022/04/04 03:32:25;;;;;;;;;;;4.50;99.90;;;;;;5092793;28;19922;-66
2022/04/04 03:34:50;;;;;;;;;;;4.60;99.90;;;;;;5093997;28;19919;-67
2022/04/04 03:37:16;;;;;;;;;;;4.50;99.90;;;;;;5093588;28;20001;-66
2022/04/04 03:39:42;;;;;;;;;;;4.60;99.90;;;;;;5093769;28;20303;-66
2022/04/04 03:42:08;;;;;;;;;;;4.60;99.90;;;;;;5092526;28;19920;-66
2022/04/04 03:44:33;;;;;;;;;;;4.60;99.90;;;;;;5093958;28;19973;-66
2022/04/04 03:46:59;;;;;;;;;;;4.60;99.90;;;;;;5093741;28;20015;-68
2022/04/04 03:49:24;;;;;;;;;;;4.70;99.90;;;;;;5093384;28;19916;-66
2022/04/04 03:51:50;;;;;;;;;;;4.70;99.90;;;;;;5093748;28;20423;-66
2022/04/04 03:54:16;;;;;;;;;;;4.70;99.90;;;;;;5093674;28;19920;-67
2022/04/04 03:56:41;;;;;;;;;;;4.70;99.90;;;;;;5092388;28;19924;-66
2022/04/04 03:59:07;;;;;;;;;;;4.70;99.90;;;;;;5092115;28;20402;-68
2022/04/04 04:01:32;;;;;;;;;;;4.70;99.90;;;;;;5092284;28;19923;-66
2022/04/04 04:03:58;;;;;;;;;;;4.70;99.90;;;;;;5093028;28;20006;-67
2022/04/04 04:06:23;;;;;;;;;;;4.70;99.90;;;;;;5093480;28;19915;-67
2022/04/04 04:08:49;;;;;;;;;;;4.80;99.90;;;;;;5093116;28;19971;-66
2022/04/04 04:11:16;;;;;;;;;;;4.70;99.90;;;;;;5093251;28;19923;-66
2022/04/04 04:13:43;;;;;;;;;;;4.80;99.90;;;;;;5091989;28;19930;-66
2022/04/04 04:16:09;;;;;;;;;;;4.80;99.90;;;;;;5093088;28;20018;-66
2022/04/04 04:18:38;;;;;;;;;;;4.70;99.90;;;;;;5092957;28;19982;-66
2022/04/04 04:21:04;;;;;;;;;;;4.80;99.90;;;;;;5093080;28;20411;-67
2022/04/04 04:23:30;;;;;;;;;;;4.80;99.90;;;;;;5093275;28;19915;-66
2022/04/04 04:25:55;;;;;;;;;;;4.80;99.90;;;;;;5091964;28;19923;-66
2022/04/04 04:28:21;;;;;;;;;;;4.80;99.90;;;;;;5093149;28;19977;-66
2022/04/04 04:30:47;;;;;;;;;;;4.90;99.90;;;;;;5092891;28;19916;-66
2022/04/04 04:33:12;;;;;;;;;;;4.80;99.90;;;;;;5093018;28;20023;-67
2022/04/04 04:35:38;;;;;;;;;;;4.80;99.90;;;;;;5092528;28;19916;-68
2022/04/04 04:38:04;;;;;;;;;;;4.80;99.90;;;;;;5095822;28;19955;-66
2022/04/04 04:40:29;;;;;;;;;;;4.90;99.90;;;;;;5096157;28;19927;-66
2022/04/04 04:42:55;;;;;;;;;;;4.90;99.90;;;;;;5096352;28;19916;-67
2022/04/04 04:45:21;;;;;;;;;;;4.80;99.90;;;;;;5095789;28;19923;-66
2022/04/04 04:47:47;;;;;;;;;;;4.80;99.90;;;;;;5094825;28;19916;-66
2022/04/04 04:50:14;;;;;;;;;;;4.90;99.90;;;;;;5092554;28;19924;-67
2022/04/04 04:52:41;;;;;;;;;;;4.90;99.90;;;;;;5092431;28;19916;-66
2022/04/04 04:55:07;;;;;;;;;;;4.90;99.90;;;;;;5092624;28;19916;-67
2022/04/04 04:57:32;;;;;;;;;;;4.90;99.90;;;;;;5092455;28;20376;-66
2022/04/04 04:59:58;;;;;;;;;;;4.90;99.90;;;;;;5091110;28;20391;-67
2022/04/04 05:02:23;;;;;;;;;;;4.90;99.90;;;;;;5092627;28;19927;-66
2022/04/04 05:04:49;;;;;;;;;;;4.90;99.90;;;;;;5092519;28;20433;-66
2022/04/04 05:07:15;;;;;;;;;;;4.90;99.90;;;;;;5092394;28;19923;-68
2022/04/04 05:09:40;;;;;;;;;;;4.80;99.90;;;;;;5092076;28;20436;-66
2022/04/04 05:12:06;;;;;;;;;;;4.90;99.90;;;;;;5092179;28;20318;-66
2022/04/04 05:14:32;;;;;;;;;;;4.90;99.90;;;;;;5090805;28;19943;-66
2022/04/04 05:16:57;;;;;;;;;;;5.00;99.90;;;;;;5091363;28;19920;-67
2022/04/04 05:19:23;;;;;;;;;;;4.80;99.90;;;;;;5091974;28;19920;-68
2022/04/04 05:21:49;;;;;;;;;;;4.90;99.90;;;;;;5092136;28;19973;-66
2022/04/04 05:24:15;;;;;;;;;;;4.90;99.90;;;;;;5087954;28;20444;-67
2022/04/04 05:26:41;;;;;;;;;;;4.90;99.90;;;;;;5089000;28;20040;-66
2022/04/04 05:29:06;;;;;;;;;;;4.90;99.90;;;;;;5087916;28;20002;-66
2022/04/04 05:31:32;;;;;;;;;;;4.90;99.90;;;;;;5091823;28;20284;-67
2022/04/04 05:33:58;;;;;;;;;;;4.90;99.90;;;;;;5091356;28;19920;-67
2022/04/04 05:36:24;;;;;;;;;;;4.90;99.90;;;;;;5091309;28;19920;-68
2022/04/04 05:38:50;;;;;;;;;;;4.90;99.90;;;;;;5090398;28;20014;-67
2022/04/04 05:41:16;;;;;;;;;;;5.00;99.90;;;;;;5090812;28;20331;-67
2022/04/04 05:43:43;;;;;;;;;;;5.00;99.90;;;;;;5091934;28;19920;-66
2022/04/04 05:46:09;;;;;;;;;;;5.00;99.90;;;;;;5091628;28;19981;-66
2022/04/04 05:48:34;;;;;;;;;;;5.00;99.90;;;;;;5090192;28;20310;-67
2022/04/04 05:51:00;;;;;;;;;;;5.00;99.90;;;;;;5091510;28;19963;-67
2022/04/04 05:53:25;;;;;;;;;;;5.10;99.90;;;;;;5091487;28;20392;-66
2022/04/04 05:55:51;;;;;;;;;;;5.10;99.90;;;;;;5091501;28;19924;-66
2022/04/04 05:58:16;;;;;;;;;;;5.10;99.90;;;;;;5091556;28;19994;-70
2022/04/04 06:00:42;;;;;;;;;;;5.10;99.90;;;;;;5090267;28;19927;-68
2022/04/04 06:03:07;;;;;;;;;;;5.10;99.90;;;;;;5091184;28;19923;-66
2022/04/04 06:05:34;;;;;;;;;;;5.20;99.90;;;;;;5091406;28;20332;-66
2022/04/04 06:08:00;;;;;;;;;;;5.20;99.90;;;;;;5091251;28;20407;-67
2022/04/04 06:10:26;;;;;;;;;;;5.20;99.90;;;;;;5091012;28;19917;-66
2022/04/04 06:12:51;;;;;;;;;;;5.20;99.90;;;;;;5090049;28;19920;-66
2022/04/04 06:15:17;;;;;;;;;;;5.30;99.90;;;;;;5091471;28;19916;-66
2022/04/04 06:17:44;;;;;;;;;;;5.30;99.90;;;;;;5091121;28;19926;-66
2022/04/04 06:20:09;;;;;;;;;;;5.30;99.90;;;;;;5090970;28;19916;-66
2022/04/04 06:22:36;;;;;;;;;;;5.40;99.90;;;;;;5091175;28;19915;-67
2022/04/04 06:25:02;;;;;;;;;;;5.40;99.90;;;;;;5091360;28;19916;-69
2022/04/04 06:27:27;;;;;;;;;;;5.40;99.90;;;;;;5091828;28;19916;-66
2022/04/04 06:29:53;;;;;;;;;;;5.40;99.90;;;;;;5093797;28;20014;-67
2022/04/04 06:32:18;;;;;;;;;;;5.50;99.90;;;;;;5094042;28;19969;-68
2022/04/04 06:34:44;;;;;;;;;;;5.50;99.90;;;;;;5095133;28;19974;-66
2022/04/04 06:37:10;;;;;;;;;;;5.50;99.90;;;;;;5094743;28;19916;-66
2022/04/04 06:39:36;;;;;;;;;;;5.50;99.90;;;;;;5094953;28;20394;-66
2022/04/04 06:42:02;;;;;;;;;;;5.50;99.90;;;;;;5094918;28;19920;-66
2022/04/04 06:44:28;;;;;;;;;;;5.50;99.90;;;;;;5094984;28;19946;-66
2022/04/04 06:46:53;;;;;;;;;;;5.50;99.90;;;;;;5094602;28;20299;-66
2022/04/04 06:49:19;;;;;;;;;;;5.60;99.90;;;;;;5094282;28;19916;-68
2022/04/04 06:51:45;;;;;;;;;;;5.60;99.90;;;;;;5094716;28;19959;-67
2022/04/04 06:54:11;;;;;;;;;;;5.60;99.90;;;;;;5094543;28;19920;-66
2022/04/04 06:56:36;;;;;;;;;;;5.60;99.90;;;;;;5094611;28;20291;-66
2022/04/04 06:59:02;;;;;;;;;;;5.60;99.90;;;;;;5093825;28;19922;-66
2022/04/04 07:01:29;;;;;;;;;;;5.70;99.90;;;;;;5093413;28;19971;-68
2022/04/04 07:03:55;;;;;;;;;;;5.60;99.90;;;;;;5094095;28;20013;-66
2022/04/04 07:06:21;;;;;;;;;;;5.60;99.90;;;;;;5094241;28;19916;-68
2022/04/04 07:08:46;;;;;;;;;;;5.60;99.90;;;;;;5093421;28;19916;-66
2022/04/04 07:11:13;;;;;;;;;;;5.70;99.90;;;;;;5095665;28;19946;-67
2022/04/04 07:13:38;;;;;;;;;;;5.60;99.90;;;;;;5114520;28;19930;-67
2022/04/04 07:16:04;;;;;;;;;;;5.60;99.90;;;;;;5114407;28;20427;-66
2022/04/04 07:18:30;;;;;;;;;;;5.60;99.90;;;;;;5114430;28;20345;-67
2022/04/04 07:20:55;;;;;;;;;;;5.70;99.90;;;;;;5114236;28;19915;-66
2022/04/04 07:23:21;;;;;;;;;;;5.70;99.90;;;;;;5113885;27;19950;-66
2022/04/04 07:25:47;;;;;;;;;;;5.70;99.90;;;;;;5114298;28;20450;-65
2022/04/04 07:28:13;;;;;;;;;;;5.60;99.90;;;;;;5114150;28;20406;-66
2022/04/04 07:30:39;;;;;;;;;;;5.60;99.90;;;;;;5112904;28;19926;-66
2022/04/04 07:33:05;;;;;;;;;;;5.70;99.90;;;;;;5113141;28;19919;-66
2022/04/04 07:35:31;;;;;;;;;;;5.60;99.90;;;;;;5114374;28;20006;-66
2022/04/04 07:37:57;;;;;;;;;;;5.60;99.90;;;;;;5114417;28;19922;-66
2022/04/04 07:40:22;;;;;;;;;;;5.60;99.90;;;;;;5112373;28;19916;-66
2022/04/04 07:42:48;;;;;;;;;;;5.70;99.90;;;;;;5113944;28;20390;-66
2022/04/04 07:45:15;;;;;;;;;;;5.60;99.90;;;;;;5112899;28;19969;-66
2022/04/04 07:47:41;;;;;;;;;;;5.70;99.90;;;;;;5114090;28;19916;-66
2022/04/04 07:50:08;;;;;;;;;;;5.70;99.90;;;;;;5113890;28;19915;-67
2022/04/04 07:52:34;;;;;;;;;;;5.70;99.90;;;;;;5113764;28;19920;-66
2022/04/04 07:54:59;;;;;;;;;;;5.70;99.90;;;;;;5113667;28;19923;-66
2022/04/04 07:57:25;;;;;;;;;;;5.70;99.90;;;;;;5114028;28;19920;-66
2022/04/04 07:59:53;;;;;;;;;;;5.70;99.90;;;;;;5113507;28;19915;-65
2022/04/04 08:02:19;;;;;;;;;;;5.70;99.90;;;;;;5114104;28;19926;-67
2022/04/04 08:04:45;;;;;;;;;;;5.70;99.90;;;;;;5112651;28;20009;-66
2022/04/04 08:07:11;;;;;;;;;;;5.70;99.90;;;;;;5105777;28;19922;-66
2022/04/04 08:09:37;;;;;;;;;;;5.70;99.90;;;;;;5103309;28;19923;-67
2022/04/04 08:12:02;;;;;;;;;;;5.70;99.90;;;;;;5101354;28;19915;-66
2022/04/04 08:14:28;;;;;;;;;;;5.70;99.90;;;;;;5103810;28;20312;-66
2022/04/04 08:16:53;;;;;;;;;;;5.70;99.90;;;;;;5102126;28;19920;-67
2022/04/04 08:19:19;;;;;;;;;;;5.70;99.90;;;;;;5104003;28;19963;-66
2022/04/04 08:21:45;;;;;;;;;;;5.70;99.90;;;;;;5101364;28;19963;-67
2022/04/04 08:24:11;;;;;;;;;;;5.70;99.90;;;;;;5102517;28;20551;-66
2022/04/04 08:26:37;;;;;;;;;;;5.60;99.90;;;;;;5102013;28;19916;-65
2022/04/04 08:29:02;;;;;;;;;;;5.60;99.90;;;;;;5098280;28;19916;-67
2022/04/04 08:31:28;;;;;;;;;;;5.70;99.90;;;;;;5092246;28;19924;-67
2022/04/04 08:33:53;;;;;;;;;;;5.70;99.90;;;;;;5109291;28;20349;-67
2022/04/04 08:36:19;;;;;;;;;;;5.70;99.90;;;;;;5112156;28;20333;-67
2022/04/04 08:38:44;;;;;;;;;;;5.70;99.90;;;;;;5110861;28;19984;-66
2022/04/04 08:41:10;;;;;;;;;;;5.70;99.90;;;;;;5112044;28;19919;-66
2022/04/04 08:43:37;;;;;;;;;;;5.60;99.90;;;;;;5111840;28;19916;-66
2022/04/04 08:46:03;;;;;;;;;;;5.70;99.90;;;;;;5112564;28;19938;-67
2022/04/04 08:48:30;;;;;;;;;;;5.70;99.90;;;;;;5110728;28;19979;-66
2022/04/04 08:50:57;;;;;;;;;;;5.70;99.90;;;;;;5098967;28;19916;-67
2022/04/04 08:53:22;;;;;;;;;;;5.70;99.90;;;;;;5091802;28;19920;-66
2022/04/04 08:55:49;;;;;;;;;;;5.70;99.90;;;;;;5092258;28;20277;-66
2022/04/04 08:58:15;;;;;;;;;;;5.80;99.90;;;;;;5092286;28;19923;-67
2022/04/04 09:00:41;;;;;;;;;;;5.80;99.90;;;;;;5091798;28;19922;-66
2022/04/04 09:03:08;;;;;;;;;;;5.70;99.90;;;;;;5092477;28;19916;-67
2022/04/04 09:05:54;;;;;;;;;;;5.80;99.90;;;;;;5091324;28;19920;-66
2022/04/04 09:08:20;;;;;;;;;;;5.80;99.90;;;;;;5090143;28;20011;-65
2022/04/04 09:10:45;;;;;;;;;;;5.80;99.90;;;;;;5092188;28;19970;-66
2022/04/04 09:13:12;;;;;;;;;;;5.90;99.90;;;;;;5090844;28;19963;-66
2022/04/04 09:15:56;;;;;;;;;;;5.90;99.90;;;;;;5090553;28;19969;-66
2022/04/04 09:18:36;;;;;;;;;;;5.90;99.90;;;;;;5091792;28;19934;-66
2022/04/04 09:21:03;;;;;;;;;;;5.90;99.90;;;;;;5091619;28;20396;-66
2022/04/04 09:23:48;;;;;;;;;;;5.90;99.90;;;;;;5092025;28;20054;-68
2022/04/04 09:26:31;;;;;;;;;;;5.90;99.90;;;;;;5091591;28;19920;-67
2022/04/04 09:28:57;;;;;;;;;;;5.90;99.90;;;;;;5091515;28;19938;-68
2022/04/04 09:31:23;;;;;;;;;;;5.90;99.90;;;;;;5091467;28;20678;-68
2022/04/04 09:33:50;;;;;;;;;;;5.90;99.90;;;;;;5090460;28;19920;-69
2022/04/04 09:36:15;;;;;;;;;;;5.90;99.90;;;;;;5091553;28;19961;-70
2022/04/04 09:38:53;;;;;;;;;;;5.90;99.90;;;;;;5091430;28;19920;-69
2022/04/04 09:41:20;;;;;;;;;;;6.00;99.90;;;;;;5090743;28;19966;-70
2022/04/04 09:43:52;;;;;;;;;;;6.00;99.90;;;;;;5092686;28;19951;-72
2022/04/04 09:46:18;;;;;;;;;;;5.90;99.90;;;;;;5090532;28;19920;-71
2022/04/04 09:49:22;;;;;;;;;;;6.00;99.90;;;;;;5091201;28;20326;-71
2022/04/04 09:51:51;;;;;;;;;;;6.00;99.90;;;;;;5049426;28;19916;-73
2022/04/04 09:54:17;;;;;;;;;;;6.00;99.90;;;;;;5084387;28;19923;-71
2022/04/04 09:56:43;;;;;;;;;;;6.00;99.90;;;;;;5089865;28;19973;-70
2022/04/04 09:59:14;;;;;;;;;;;6.00;99.90;;;;;;5089168;28;20296;-71
2022/04/04 10:01:41;;;;;;;;;;;6.00;99.90;;;;;;5090301;28;19969;-69
2022/04/04 10:04:07;;;;;;;;;;;6.10;99.90;;;;;;5088857;28;19915;-69
2022/04/04 10:06:33;;;;;;;;;;;6.00;99.90;;;;;;5101198;28;20436;-68
2022/04/04 10:09:00;;;;;;;;;;;6.00;99.90;;;;;;5110015;27;19919;-70
2022/04/04 10:11:26;;;;;;;;;;;6.00;99.90;;;;;;5114600;28;19958;-68
2022/04/04 10:13:55;;;;;;;;;;;6.10;99.90;;;;;;5099768;28;19978;-68
2022/04/04 10:16:24;;;;;;;;;;;6.10;99.90;;;;;;5102410;28;19922;-69
2022/04/04 10:18:54;;;;;;;;;;;6.10;99.90;;;;;;5122449;27;19922;-68
2022/04/04 10:21:21;;;;;;;;;;;6.10;99.90;;;;;;5131245;27;20377;-68
2022/04/04 10:23:48;;;;;;;;;;;6.20;99.90;;;;;;5132124;27;20370;-67
2022/04/04 10:26:15;;;;;;;;;;;6.20;99.90;;;;;;5131969;27;19919;-67
2022/04/04 10:28:44;;;;;;;;;;;6.20;99.90;;;;;;5130487;28;20002;-67
2022/04/04 10:31:20;;;;;;;;;;;6.20;99.90;;;;;;5123152;27;19922;-67
2022/04/04 10:33:47;;;;;;;;;;;6.20;99.90;;;;;;5110076;28;20271;-67
2022/04/04 10:36:16;;;;;;;;;;;6.20;99.90;;;;;;5102110;28;19920;-67
2022/04/04 10:38:44;;;;;;;;;;;6.20;99.90;;;;;;5100416;28;20345;-66
2022/04/04 10:41:10;;;;;;;;;;;6.10;99.90;;;;;;5100308;28;19916;-67
2022/04/04 10:43:39;;;;;;;;;;;6.20;99.90;;;;;;5104713;28;19916;-66
2022/04/04 10:46:09;;;;;;;;;;;6.20;99.90;;;;;;5098156;28;20563;-66
2022/04/04 10:48:37;;;;;;;;;;;6.20;99.90;;;;;;5100004;28;19915;-71
2022/04/04 10:51:08;;;;;;;;;;;6.30;99.90;;;;;;5101401;28;20336;-67
2022/04/04 10:53:34;;;;;;;;;;;6.30;99.90;;;;;;5098923;28;19942;-66
2022/04/04 10:56:00;;;;;;;;;;;6.30;99.90;;;;;;5090847;28;19916;-67
2022/04/04 10:58:26;;;;;;;;;;;6.40;99.90;;;;;;5090715;28;19973;-67
2022/04/04 11:00:52;;;;;;;;;;;6.40;99.90;;;;;;5090570;28;19946;-67
2022/04/04 11:03:25;;;;;;;;;;;6.40;99.90;;;;;;5090848;28;19955;-66
2022/04/04 11:09:15;;;;;;;;;;;6.40;99.90;;;;;;5090670;28;19920;-67
2022/04/04 11:11:49;;;;;;;;;;;6.40;99.90;;;;;;5089032;28;19916;-67
2022/04/04 11:14:16;;;;;;;;;;;6.40;99.90;;;;;;5092138;28;19919;-66
2022/04/04 11:17:00;;;;;;;;;;;6.40;99.90;;;;;;5094574;28;19920;-66
2022/04/04 11:19:29;;;;;;;;;;;6.50;99.90;;;;;;5094022;28;19915;-68
2022/04/04 11:21:54;;;;;;;;;;;6.40;99.90;;;;;;5093813;28;19916;-66
2022/04/04 11:24:20;;;;;;;;;;;6.50;99.90;;;;;;5092865;28;19923;-68
2022/04/04 11:26:47;;;;;;;;;;;6.50;99.90;;;;;;5094423;28;20453;-66
2022/04/04 11:29:15;;;;;;;;;;;6.50;99.90;;;;;;5092420;28;19923;-66
2022/04/04 11:31:47;;;;;;;;;;;6.50;99.90;;;;;;5094037;28;20049;-66
2022/04/04 11:34:13;;;;;;;;;;;6.50;99.90;;;;;;5094234;28;19930;-66
2022/04/04 11:36:39;;;;;;;;;;;6.60;99.90;;;;;;5094032;28;19995;-66
2022/04/04 11:39:08;;;;;;;;;;;6.60;99.90;;;;;;5093991;28;19916;-66
2022/04/04 11:41:37;;;;;;;;;;;6.60;99.90;;;;;;5093968;28;19927;-66
2022/04/04 11:44:03;;;;;;;;;;;6.60;99.90;;;;;;5094002;28;19969;-68
2022/04/04 11:46:28;;;;;;;;;;;6.60;99.90;;;;;;5092740;28;20319;-68
2022/04/04 11:48:55;;;;;;;;;;;6.70;99.90;;;;;;5093610;28;19942;-66
2022/04/04 11:51:25;;;;;;;;;;;6.70;99.90;;;;;;5092632;28;20388;-67
2022/04/04 11:53:59;;;;;;;;;;;6.80;99.90;;;;;;5095855;28;19920;-67
2022/04/04 11:56:26;;;;;;;;;;;6.80;99.90;;;;;;5099858;28;19916;-68
2022/04/04 11:58:54;;;;;;;;;;;6.80;99.90;;;;;;5099246;28;19920;-68
2022/04/04 12:01:19;;;;;;;;;;;6.90;99.90;;;;;;5098666;28;19923;-69
2022/04/04 12:03:49;;;;;;;;;;;6.80;99.90;;;;;;5097075;28;20287;-69
2022/04/04 12:06:15;;;;;;;;;;;6.90;99.90;;;;;;5113876;28;19915;-68
2022/04/04 12:08:44;;;;;;;;;;;6.90;99.90;;;;;;5113431;28;19978;-69
2022/04/04 12:11:10;;;;;;;;;;;6.90;99.90;;;;;;5113315;28;20302;-68
2022/04/04 12:13:49;;;;;;;;;;;6.90;99.90;;;;;;5113489;28;19923;-69
2022/04/04 12:16:15;;;;;;;;;;;7.00;99.90;;;;;;5112261;28;19919;-67
2022/04/04 12:18:42;;;;;;;;;;;7.00;99.90;;;;;;5113441;28;20007;-68
2022/04/04 12:21:08;;;;;;;;;;;7.00;99.90;;;;;;5113067;28;20383;-69
2022/04/04 12:26:22;;;;;;;;;;;7.10;99.90;;;;;;5090795;28;19916;-68
2022/04/04 12:28:48;;;;;;;;;;;7.10;99.90;;;;;;5105255;28;20034;-68
2022/04/04 12:31:27;;;;;;;;;;;7.10;99.90;;;;;;5091842;28;20003;-68
2022/04/04 12:34:04;;;;;;;;;;;7.20;99.90;;;;;;5092741;28;19927;-67
2022/04/04 12:36:30;;;;;;;;;;;7.20;99.90;;;;;;5094089;28;19916;-68
2022/04/04 12:38:59;;;;;;;;;;;7.20;99.90;;;;;;5112692;28;19915;-68
2022/04/04 12:41:25;;;;;;;;;;;7.20;99.90;;;;;;5111675;28;19916;-68
2022/04/04 12:44:01;;;;;;;;;;;7.20;99.90;;;;;;5113129;28;19923;-69
2022/04/04 12:46:27;;;;;;;;;;;7.20;99.90;;;;;;5110853;28;19977;-69
2022/04/04 12:48:54;;;;;;;;;;;7.20;99.90;;;;;;5113297;28;19922;-69
2022/04/04 12:51:29;;;;;;;;;;;7.20;99.90;;;;;;5113081;28;19923;-69
2022/04/04 12:53:55;;;;;;;;;;;7.30;99.90;;;;;;5113812;27;19919;-71
2022/04/04 12:56:23;;;;;;;;;;;7.20;99.90;;;;;;5120944;27;20531;-70
2022/04/04 12:59:03;;;;;;;;;;;7.30;99.90;;;;;;5114239;28;20428;-71
2022/04/04 13:01:28;;;;;;;;;;;7.30;99.90;;;;;;5106383;28;20039;-71
2022/04/04 13:03:55;;;;;;;;;;;7.40;99.90;;;;;;5116671;27;20400;-71
2022/04/04 13:06:21;;;;;;;;;;;7.40;99.90;;;;;;5113230;27;20302;-70
2022/04/04 13:08:53;;;;;;;;;;;7.40;99.90;;;;;;5127957;27;19915;-70
2022/04/04 13:11:19;;;;;;;;;;;7.50;99.90;;;;;;5136293;27;20010;-70
2022/04/04 13:14:06;;;;;;;;;;;7.40;99.90;;;;;;5132883;27;20010;-69
2022/04/04 13:16:36;;;;;;;;;;;7.40;99.90;;;;;;5132939;27;19923;-70
2022/04/04 13:19:03;;;;;;;;;;;7.50;99.90;;;;;;5132885;27;20279;-69
2022/04/04 13:21:28;;;;;;;;;;;7.50;99.90;;;;;;5127685;27;19967;-71
2022/04/04 13:23:54;;;;;;;;;;;7.50;99.90;;;;;;5100756;28;19961;-71
2022/04/04 13:26:20;;;;;;;;;;;7.50;99.90;;;;;;5104442;28;19916;-71
2022/04/04 13:28:45;;;;;;;;;;;7.50;99.90;;;;;;5099198;28;19951;-71
2022/04/04 13:31:11;;;;;;;;;;;7.50;99.90;;;;;;5100963;28;19981;-72
2022/04/04 13:33:36;;;;;;;;;;;7.60;99.90;;;;;;5101280;28;20391;-71
2022/04/04 13:36:04;;;;;;;;;;;7.60;99.90;;;;;;5102967;28;19915;-71
2022/04/04 13:38:30;;;;;;;;;;;7.60;99.90;;;;;;5078156;28;19916;-71
2022/04/04 13:40:55;;;;;;;;;;;7.60;99.90;;;;;;5101475;28;20294;-72
2022/04/04 13:43:21;;;;;;;;;;;7.60;99.90;;;;;;5132000;27;20018;-71
2022/04/04 13:45:46;;;;;;;;;;;7.70;99.90;;;;;;5131163;27;19941;-71
2022/04/04 13:48:12;;;;;;;;;;;7.70;99.90;;;;;;5130963;27;19915;-71
2022/04/04 13:50:37;;;;;;;;;;;7.70;99.90;;;;;;5130717;27;19923;-71
2022/04/04 13:53:03;;;;;;;;;;;7.70;99.90;;;;;;5132136;27;20339;-73
2022/04/04 13:55:29;;;;;;;;;;;7.80;99.90;;;;;;5117284;27;20014;-71
2022/04/04 13:57:54;;;;;;;;;;;7.80;99.90;;;;;;5113986;27;19969;-72
2022/04/04 14:00:20;;;;;;;;;;;7.90;99.90;;;;;;5122210;27;19915;-73
2022/04/04 14:02:45;;;;;;;;;;;7.90;99.90;;;;;;5113963;27;20380;-72
2022/04/04 14:05:12;;;;;;;;;;;7.90;99.90;;;;;;5114500;28;20310;-72
2022/04/04 14:07:38;;;;;;;;;;;7.90;99.90;;;;;;5114004;27;19919;-72
2022/04/04 14:10:04;;;;;;;;;;;7.90;99.90;;;;;;5130733;27;19920;-72
2022/04/04 14:12:29;;;;;;;;;;;7.90;99.90;;;;;;5131091;28;19921;-72
2022/04/04 14:14:55;;;;;;;;;;;7.90;99.90;;;;;;5130901;28;20291;-73
2022/04/04 14:17:22;;;;;;;;;;;8.00;99.90;;;;;;5130594;28;19915;-72
2022/04/04 14:19:47;;;;;;;;;;;8.00;99.90;;;;;;5131763;27;20414;-73
2022/04/04 14:22:13;;;;;;;;;;;8.00;99.90;;;;;;5130988;28;20019;-71
2022/04/04 14:24:40;;;;;;;;;;;8.00;99.90;;;;;;5130843;28;20378;-72
2022/04/04 14:27:05;;;;;;;;;;;8.00;99.90;;;;;;5132340;27;19916;-72
2022/04/04 14:29:32;;;;;;;;;;;8.10;99.90;;;;;;5125780;27;19927;-71
2022/04/04 14:31:58;;;;;;;;;;;8.10;99.90;;;;;;5111490;28;19955;-72
2022/04/04 14:34:23;;;;;;;;;;;8.10;99.90;;;;;;5111787;28;20380;-72
2022/04/04 14:36:50;;;;;;;;;;;8.20;99.90;;;;;;5103712;28;19923;-74